createdAt,value
2022-11-26T00:02:31.804Z,89.52
2022-11-26T00:04:59.953Z,90.39
2022-11-26T00:07:30.076Z,89.86
2022-11-26T00:09:58.736Z,89.85
2022-11-26T00:12:28.633Z,89.55
2022-11-26T00:14:55.700Z,89.44
2022-11-26T00:17:22.872Z,90.58
2022-11-26T00:19:49.893Z,91.14
2022-11-26T00:22:40.598Z,91.02
2022-11-26T00:25:14.054Z,90.78
2022-11-26T00:27:41.092Z,90.67
2022-11-26T00:30:28.049Z,90.25
2022-11-26T00:32:56.161Z,91.50
2022-11-26T00:35:23.686Z,90.77
2022-11-26T00:37:56.881Z,92.48
2022-11-26T00:40:26.802Z,91.67
2022-11-26T00:43:00.152Z,92.48
2022-11-26T00:45:30.706Z,92.13
2022-11-26T00:48:02.112Z,92.20
2022-11-26T00:50:34.683Z,91.42
2022-11-26T00:53:01.897Z,90.60
2022-11-26T00:55:38.118Z,90.51
2022-11-26T00:58:06.702Z,91.34
2022-11-26T01:00:35.278Z,91.67
2022-11-26T01:03:02.595Z,91.49
2022-11-26T01:05:32.213Z,90.70
2022-11-26T01:08:03.022Z,89.91
2022-11-26T01:10:31.009Z,89.65
2022-11-26T01:12:58.133Z,91.12
2022-11-26T01:15:26.564Z,90.97
2022-11-26T01:17:54.300Z,91.96
2022-11-26T01:20:25.327Z,90.51
2022-11-26T01:22:53.968Z,90.43
2022-11-26T01:25:22.082Z,90.85
2022-11-26T01:27:49.601Z,91.11
2022-11-26T01:30:22.954Z,90.83
2022-11-26T01:32:50.802Z,91.35
2022-11-26T01:35:19.544Z,91.44
2022-11-26T01:37:47.804Z,91.30
2022-11-26T01:40:26.603Z,91.37
2022-11-26T01:43:21.360Z,92.42
2022-11-26T01:45:48.306Z,92.07
2022-11-26T01:48:21.137Z,93.03
2022-11-26T01:50:53.673Z,92.12
2022-11-26T01:53:49.537Z,92.27
2022-11-26T01:56:41.245Z,91.13
2022-11-26T01:59:25.712Z,90.51
2022-11-26T02:01:54.528Z,90.29
2022-11-26T02:04:31.313Z,90.29
2022-11-26T02:06:58.497Z,90.99
2022-11-26T02:09:28.153Z,91.14
2022-11-26T02:11:55.475Z,90.94
2022-11-26T02:14:36.027Z,90.21
2022-11-26T02:17:35.433Z,90.49
2022-11-26T02:20:05.100Z,90.14
2022-11-26T02:22:50.062Z,91.04
2022-11-26T02:25:38.780Z,91.16
2022-11-26T02:28:33.802Z,91.75
2022-11-26T02:31:08.352Z,90.90
2022-11-26T02:34:00.995Z,91.07
2022-11-26T02:36:37.384Z,91.16
2022-11-26T02:39:24.945Z,90.49
2022-11-26T02:41:54.972Z,90.15
2022-11-26T02:44:29.189Z,90.90
2022-11-26T02:47:08.116Z,90.46
2022-11-26T02:49:38.373Z,89.56
2022-11-26T02:52:07.135Z,90.54
2022-11-26T02:54:36.881Z,90.53
2022-11-26T02:57:07.143Z,90.77
2022-11-26T02:59:35.073Z,90.57
2022-11-26T03:02:17.633Z,91.10
2022-11-26T03:04:50.588Z,90.86
2022-11-26T03:07:20.325Z,90.79
2022-11-26T03:09:56.407Z,90.75
2022-11-26T03:12:23.996Z,90.22
2022-11-26T03:14:51.305Z,90.83
2022-11-26T03:17:18.892Z,91.07
2022-11-26T03:19:46.875Z,92.04
2022-11-26T03:22:15.051Z,89.86
2022-11-26T03:24:42.555Z,90.11
2022-11-26T03:27:09.650Z,90.14
2022-11-26T03:29:36.576Z,90.40
2022-11-26T03:32:03.625Z,90.11
2022-11-26T03:34:31.128Z,91.24
2022-11-26T03:36:58.156Z,91.84
2022-11-26T03:39:25.226Z,91.91
2022-11-26T03:41:52.229Z,91.81
2022-11-26T03:44:19.408Z,92.23
2022-11-26T03:46:46.417Z,91.30
2022-11-26T03:49:13.389Z,91.85
2022-11-26T03:51:40.415Z,90.92
2022-11-26T03:54:07.454Z,91.15
2022-11-26T03:56:34.466Z,92.60
2022-11-26T03:59:04.651Z,90.98
2022-11-26T04:01:31.686Z,90.71
2022-11-26T04:03:58.753Z,92.12
2022-11-26T04:06:26.044Z,90.73
2022-11-26T04:08:53.065Z,90.46
2022-11-26T04:11:20.189Z,91.12
2022-11-26T04:13:47.184Z,90.44
2022-11-26T04:16:14.566Z,90.61
2022-11-26T04:18:41.594Z,91.18
2022-11-26T04:21:09.314Z,91.49
2022-11-26T04:23:36.560Z,92.00
2022-11-26T04:26:03.803Z,89.42
2022-11-26T04:28:30.596Z,90.48
2022-11-26T04:30:58.008Z,89.60
2022-11-26T04:33:27.387Z,90.91
2022-11-26T04:35:55.327Z,91.56
2022-11-26T04:38:25.791Z,91.63
2022-11-26T04:40:53.119Z,92.57
2022-11-26T04:43:20.209Z,90.58
2022-11-26T04:45:47.150Z,90.47
2022-11-26T04:48:14.138Z,90.74
2022-11-26T04:50:41.105Z,91.53
2022-11-26T04:53:08.154Z,90.68
2022-11-26T04:55:35.367Z,90.55
2022-11-26T04:58:02.466Z,90.57
2022-11-26T05:00:29.606Z,90.78
2022-11-26T05:02:56.731Z,91.41
2022-11-26T05:05:23.624Z,89.88
2022-11-26T05:07:50.505Z,90.58
2022-11-26T05:10:17.639Z,91.07
2022-11-26T05:12:44.789Z,91.07
2022-11-26T05:15:12.478Z,91.15
2022-11-26T05:17:39.456Z,91.19
2022-11-26T05:20:07.312Z,90.85
2022-11-26T05:22:34.256Z,91.72
2022-11-26T05:25:01.317Z,92.00
2022-11-26T05:27:30.733Z,92.08
2022-11-26T05:29:57.926Z,91.31
2022-11-26T05:32:24.973Z,91.24
2022-11-26T05:34:54.497Z,91.20
2022-11-26T05:37:25.494Z,90.94
2022-11-26T05:39:52.446Z,92.31
2022-11-26T05:42:19.388Z,92.15
2022-11-26T05:44:46.323Z,91.11
2022-11-26T05:47:13.632Z,90.35
2022-11-26T05:49:40.564Z,90.20
2022-11-26T05:52:07.520Z,89.86
2022-11-26T05:54:34.541Z,90.83
2022-11-26T05:57:01.774Z,88.98
2022-11-26T05:59:29.609Z,89.61
2022-11-26T06:01:57.154Z,89.46
2022-11-26T06:04:24.537Z,90.49
2022-11-26T06:06:51.479Z,90.01
2022-11-26T06:09:18.556Z,89.96
2022-11-26T06:11:45.748Z,88.19
2022-11-26T06:14:12.580Z,86.65
2022-11-26T06:16:39.600Z,87.24
2022-11-26T06:19:06.526Z,84.52
2022-11-26T06:21:33.958Z,83.85
2022-11-26T06:24:00.892Z,82.79
2022-11-26T06:26:28.309Z,78.74
2022-11-26T06:28:55.612Z,75.91
2022-11-26T06:31:22.867Z,76.44
2022-11-26T06:33:56.760Z,75.96
2022-11-26T06:36:24.339Z,76.85
2022-11-26T06:38:51.740Z,73.60
2022-11-26T06:41:21.063Z,69.92
2022-11-26T06:43:48.047Z,69.13
2022-11-26T06:46:16.275Z,68.41
2022-11-26T06:48:43.509Z,63.61
2022-11-26T06:51:13.044Z,62.95
2022-11-26T06:53:42.555Z,62.32
2022-11-26T06:56:18.525Z,55.62
2022-11-26T06:58:47.757Z,55.77
2022-11-26T07:01:21.692Z,53.79
2022-11-26T07:03:48.677Z,50.51
2022-11-26T07:06:20.906Z,48.86
2022-11-26T07:08:51.095Z,51.97
2022-11-26T07:11:19.228Z,50.22
2022-11-26T07:13:46.836Z,49.88
2022-11-26T07:16:14.414Z,49.67
2022-11-26T07:18:42.478Z,47.32
2022-11-26T07:21:12.289Z,45.11
2022-11-26T07:23:40.368Z,45.96
2022-11-26T07:26:09.186Z,43.78
2022-11-26T07:28:37.382Z,43.22
2022-11-26T07:31:12.958Z,44.66
2022-11-26T07:33:43.357Z,45.50
2022-11-26T07:36:16.318Z,44.86
2022-11-26T07:38:44.064Z,45.65
2022-11-26T07:41:16.728Z,44.70
2022-11-26T07:43:44.303Z,45.83
2022-11-26T07:46:14.084Z,45.79
2022-11-26T07:48:45.996Z,47.26
2022-11-26T07:51:21.844Z,49.36
2022-11-26T07:53:49.558Z,50.70
2022-11-26T07:56:20.319Z,50.38
2022-11-26T07:58:47.738Z,49.60
2022-11-26T08:01:24.321Z,50.07
2022-11-26T08:03:52.512Z,53.83
2022-11-26T08:06:22.197Z,52.69
2022-11-26T08:08:49.898Z,54.71
2022-11-26T08:11:23.763Z,57.82
2022-11-26T08:14:00.417Z,55.20
2022-11-26T08:16:29.114Z,56.50
2022-11-26T08:18:59.127Z,56.37
2022-11-26T08:21:26.688Z,56.40
2022-11-26T08:23:54.786Z,56.97
2022-11-26T08:26:30.679Z,57.13
2022-11-26T08:29:01.671Z,56.91
2022-11-26T08:31:29.061Z,55.61
2022-11-26T08:34:00.691Z,55.31
2022-11-26T08:36:31.994Z,56.16
2022-11-26T08:39:01.691Z,56.81
2022-11-26T08:41:29.293Z,57.58
2022-11-26T08:44:11.683Z,55.95
2022-11-26T08:46:41.488Z,57.76
2022-11-26T08:49:19.879Z,55.72
2022-11-26T08:51:47.226Z,55.15
2022-11-26T08:54:14.516Z,55.16
2022-11-26T08:56:41.889Z,56.10
2022-11-26T08:59:10.091Z,55.04
2022-11-26T09:01:37.205Z,54.51
2022-11-26T09:04:05.833Z,55.76
2022-11-26T09:06:34.683Z,56.09
2022-11-26T09:09:15.043Z,55.18
2022-11-26T09:11:50.122Z,54.05
2022-11-26T09:14:20.605Z,55.00
2022-11-26T09:16:48.201Z,56.49
2022-11-26T09:19:16.001Z,56.28
2022-11-26T09:21:44.093Z,56.63
2022-11-26T09:24:11.466Z,58.73
2022-11-26T09:26:38.910Z,58.95
2022-11-26T09:29:06.481Z,58.82
2022-11-26T09:31:33.625Z,59.87
2022-11-26T09:34:02.863Z,55.57
2022-11-26T09:36:30.171Z,56.98
2022-11-26T09:38:58.915Z,56.99
2022-11-26T09:41:34.974Z,57.05
2022-11-26T09:44:55.835Z,57.19
2022-11-26T09:47:25.573Z,57.63
2022-11-26T09:50:06.596Z,58.64
2022-11-26T09:52:45.325Z,59.77
2022-11-26T09:55:34.265Z,58.10
2022-11-26T09:58:18.300Z,59.54
2022-11-26T10:00:50.954Z,56.91
2022-11-26T10:03:30.925Z,58.42
2022-11-26T10:06:35.020Z,55.54
2022-11-26T10:09:33.237Z,59.37
2022-11-26T10:12:25.764Z,59.51
2022-11-26T10:15:26.519Z,59.37
2022-11-26T10:18:12.667Z,60.78
2022-11-26T10:21:14.390Z,62.50
2022-11-26T10:23:57.678Z,64.27
2022-11-26T10:26:33.059Z,63.26
2022-11-26T10:29:35.304Z,64.17
2022-11-26T10:32:15.712Z,65.97
2022-11-26T10:34:52.136Z,67.99
2022-11-26T10:37:23.951Z,66.84
2022-11-26T10:40:00.947Z,67.77
2022-11-26T10:42:43.543Z,68.84
2022-11-26T10:45:37.978Z,71.36
2022-11-26T10:48:15.619Z,68.99
2022-11-26T10:50:48.016Z,68.45
2022-11-26T10:53:23.938Z,69.17
2022-11-26T10:55:54.170Z,71.98
2022-11-26T10:58:31.742Z,72.43
2022-11-26T11:01:02.825Z,70.87
2022-11-26T11:04:07.246Z,71.71
2022-11-26T11:06:44.151Z,72.15
2022-11-26T11:09:26.179Z,73.06
2022-11-26T11:12:12.628Z,74.11
2022-11-26T11:14:43.537Z,74.29
2022-11-26T11:17:36.454Z,75.25
2022-11-26T11:20:16.394Z,77.82
2022-11-26T11:22:45.781Z,77.52
2022-11-26T11:25:24.818Z,80.12
2022-11-26T11:27:53.000Z,79.90
2022-11-26T11:30:29.207Z,80.29
2022-11-26T11:32:57.599Z,80.14
2022-11-26T11:35:30.495Z,79.56
2022-11-26T11:37:58.802Z,80.82
2022-11-26T11:40:29.300Z,82.76
2022-11-26T11:43:05.818Z,81.99
2022-11-26T11:45:42.711Z,79.97
2022-11-26T11:48:47.075Z,82.71
2022-11-26T11:51:38.576Z,83.46
2022-11-26T11:54:21.498Z,79.67
2022-11-26T11:57:18.426Z,81.85
2022-11-26T11:59:58.731Z,80.33
2022-11-26T12:03:19.525Z,79.04
2022-11-26T12:06:13.109Z,79.06
2022-11-26T12:09:04.677Z,81.08
2022-11-26T12:12:00.509Z,80.58
2022-11-26T12:14:45.095Z,82.80
2022-11-26T12:17:18.121Z,83.85
2022-11-26T12:20:09.239Z,83.60
2022-11-26T12:22:46.557Z,82.97
2022-11-26T12:25:36.633Z,84.11
2022-11-26T12:28:16.022Z,83.11
2022-11-26T12:30:42.838Z,82.83
2022-11-26T12:33:18.673Z,84.00
2022-11-26T12:35:52.251Z,85.07
2022-11-26T12:38:27.862Z,84.24
2022-11-26T12:41:08.127Z,85.72
2022-11-26T12:43:47.050Z,84.64
2022-11-26T12:46:50.445Z,84.58
2022-11-26T12:49:55.848Z,82.66
2022-11-26T12:52:56.309Z,83.85
2022-11-26T12:55:36.239Z,83.51
2022-11-26T12:58:15.628Z,83.66
2022-11-26T13:00:43.479Z,83.44
2022-11-26T13:03:16.451Z,83.87
2022-11-26T13:05:52.251Z,84.08
2022-11-26T13:08:31.280Z,84.62
2022-11-26T13:11:23.931Z,84.91
2022-11-26T13:14:18.542Z,85.21
2022-11-26T13:17:00.309Z,83.33
2022-11-26T13:19:32.988Z,83.75
2022-11-26T13:22:09.859Z,82.85
2022-11-26T13:24:54.929Z,82.92
2022-11-26T13:27:34.239Z,83.30
2022-11-26T13:30:08.290Z,84.24
2022-11-26T13:33:06.959Z,84.50
2022-11-26T13:35:45.898Z,85.46
2022-11-26T13:38:39.375Z,83.16
2022-11-26T13:41:47.780Z,84.65
2022-11-26T13:44:23.381Z,84.87
2022-11-26T13:47:13.140Z,85.28
2022-11-26T13:49:49.038Z,85.00
2022-11-26T13:52:38.329Z,85.84
2022-11-26T13:55:22.057Z,86.26
2022-11-26T13:57:57.921Z,86.26
2022-11-26T14:00:26.826Z,85.10
2022-11-26T14:02:53.808Z,85.51
2022-11-26T14:05:21.043Z,85.99
2022-11-26T14:07:48.404Z,86.60
2022-11-26T14:10:37.372Z,87.52
2022-11-26T14:13:04.289Z,86.81
2022-11-26T14:15:43.618Z,88.18
2022-11-26T14:18:15.968Z,87.63
2022-11-26T14:20:57.906Z,87.99
2022-11-26T14:23:49.870Z,86.59
2022-11-26T14:26:19.894Z,87.03
2022-11-26T14:28:48.928Z,87.46
2022-11-26T14:31:31.157Z,86.59
2022-11-26T14:34:04.909Z,87.20
2022-11-26T14:36:32.310Z,86.87
2022-11-26T14:39:15.068Z,86.91
2022-11-26T14:41:42.161Z,87.17
2022-11-26T14:44:14.349Z,87.72
2022-11-26T14:46:43.669Z,88.11
2022-11-26T14:49:42.140Z,89.10
2022-11-26T14:52:37.564Z,89.66
2022-11-26T14:55:09.459Z,89.58
2022-11-26T14:57:43.416Z,89.61
2022-11-26T15:00:16.621Z,90.25
2022-11-26T15:02:48.767Z,90.31
2022-11-26T15:05:22.131Z,90.38
2022-11-26T15:08:05.240Z,90.01
2022-11-26T15:10:41.234Z,89.94
2022-11-26T15:13:17.019Z,90.72
2022-11-26T15:15:57.488Z,90.29
2022-11-26T15:18:30.918Z,90.47
2022-11-26T15:21:01.958Z,90.47
2022-11-26T15:23:36.884Z,91.29
2022-11-26T15:26:04.823Z,90.47
2022-11-26T15:28:39.559Z,90.81
2022-11-26T15:31:10.241Z,90.73
2022-11-26T15:33:39.200Z,91.07
2022-11-26T15:36:09.515Z,90.58
2022-11-26T15:39:01.330Z,90.79
2022-11-26T15:41:28.352Z,91.65
2022-11-26T15:43:59.097Z,91.83
2022-11-26T15:46:29.542Z,91.94
2022-11-26T15:49:08.055Z,90.96
2022-11-26T15:51:44.170Z,91.40
2022-11-26T15:55:10.697Z,91.88
2022-11-26T15:57:38.734Z,91.78
2022-11-26T16:00:19.906Z,92.15
2022-11-26T16:02:47.044Z,91.35
2022-11-26T16:05:24.954Z,91.73
2022-11-26T16:08:06.426Z,91.45
2022-11-26T16:10:39.774Z,92.21
2022-11-26T16:13:11.003Z,92.29
2022-11-26T16:15:50.313Z,93.04
2022-11-26T16:18:21.051Z,93.03
2022-11-26T16:20:48.791Z,93.00
2022-11-26T16:23:29.001Z,92.77
2022-11-26T16:26:09.512Z,92.51
2022-11-26T16:28:36.852Z,92.74
2022-11-26T16:31:04.630Z,91.96
2022-11-26T16:33:31.767Z,92.57
2022-11-26T16:35:58.952Z,93.22
2022-11-26T16:38:27.442Z,92.81
2022-11-26T16:40:55.025Z,92.79
2022-11-26T16:43:22.938Z,92.76
2022-11-26T16:45:53.333Z,91.96
2022-11-26T16:48:20.203Z,92.46
2022-11-26T16:50:47.186Z,92.48
2022-11-26T16:53:14.153Z,92.02
2022-11-26T16:55:41.027Z,92.45
2022-11-26T16:58:16.913Z,91.78
2022-11-26T17:00:43.910Z,91.43
2022-11-26T17:03:14.329Z,90.93
2022-11-26T17:05:44.680Z,91.25
2022-11-26T17:08:12.761Z,91.45
2022-11-26T17:10:40.721Z,91.39
2022-11-26T17:13:07.934Z,90.28
2022-11-26T17:15:35.173Z,89.20
2022-11-26T17:18:13.564Z,89.37
2022-11-26T17:20:40.465Z,88.91
2022-11-26T17:23:07.883Z,89.29
2022-11-26T17:25:35.948Z,88.89
2022-11-26T17:28:02.748Z,89.00
2022-11-26T17:30:29.739Z,88.33
2022-11-26T17:32:56.957Z,88.61
2022-11-26T17:35:24.022Z,88.93
2022-11-26T17:37:50.995Z,88.16
2022-11-26T17:40:23.447Z,89.41
2022-11-26T17:42:51.397Z,90.67
2022-11-26T17:45:19.418Z,90.53
2022-11-26T17:47:46.366Z,90.11
2022-11-26T17:50:22.616Z,89.59
2022-11-26T17:52:50.217Z,90.28
2022-11-26T17:55:19.154Z,89.08
2022-11-26T17:57:46.089Z,89.59
2022-11-26T18:00:16.900Z,89.90
2022-11-26T18:02:43.974Z,88.92
2022-11-26T18:05:11.704Z,89.17
2022-11-26T18:07:39.736Z,89.74
2022-11-26T18:10:11.075Z,89.97
2022-11-26T18:12:38.735Z,90.34
2022-11-26T18:15:06.466Z,89.85
2022-11-26T18:17:33.916Z,89.99
2022-11-26T18:20:00.847Z,90.17
2022-11-26T18:22:28.477Z,90.11
2022-11-26T18:24:57.259Z,90.06
2022-11-26T18:27:31.216Z,88.96
2022-11-26T18:29:58.153Z,89.37
2022-11-26T18:32:25.470Z,88.84
2022-11-26T18:34:55.213Z,88.52
2022-11-26T18:37:22.303Z,90.23
2022-11-26T18:39:49.250Z,90.00
2022-11-26T18:42:36.075Z,91.13
2022-11-26T18:45:03.805Z,90.99
2022-11-26T18:47:31.553Z,90.42
2022-11-26T18:49:59.685Z,91.05
2022-11-26T18:52:28.004Z,90.35
2022-11-26T18:54:55.672Z,90.52
2022-11-26T18:57:22.770Z,90.67
2022-11-26T18:59:50.815Z,90.02
2022-11-26T19:02:17.917Z,89.92
2022-11-26T19:04:45.891Z,89.08
2022-11-26T19:07:14.328Z,89.85
2022-11-26T19:09:42.676Z,91.40
2022-11-26T19:12:12.242Z,90.86
2022-11-26T19:14:39.287Z,90.71
2022-11-26T19:17:06.610Z,91.59
2022-11-26T19:19:33.632Z,90.72
2022-11-26T19:22:01.837Z,90.71
2022-11-26T19:24:30.287Z,91.42
2022-11-26T19:26:58.104Z,90.66
2022-11-26T19:29:26.375Z,90.00
2022-11-26T19:31:53.873Z,89.99
2022-11-26T19:34:20.820Z,90.12
2022-11-26T19:36:49.238Z,89.75
2022-11-26T19:39:17.079Z,90.26
2022-11-26T19:41:44.237Z,89.20
2022-11-26T19:44:11.104Z,89.87
2022-11-26T19:46:41.237Z,89.83
2022-11-26T19:49:12.718Z,90.66
2022-11-26T19:51:40.306Z,90.43
2022-11-26T19:54:08.015Z,89.97
2022-11-26T19:56:35.442Z,89.03
2022-11-26T19:59:02.957Z,89.93
2022-11-26T20:01:32.899Z,90.98
2022-11-26T20:04:01.523Z,91.52
2022-11-26T20:06:30.378Z,91.34
2022-11-26T20:09:00.845Z,91.40
2022-11-26T20:11:29.075Z,92.91
2022-11-26T20:13:56.939Z,93.33
2022-11-26T20:16:26.839Z,94.12
2022-11-26T20:18:54.575Z,93.87
2022-11-26T20:21:27.196Z,95.66
2022-11-26T20:23:57.238Z,96.05
2022-11-26T20:26:27.979Z,96.50
2022-11-26T20:28:56.586Z,95.42
2022-11-26T20:31:24.551Z,95.93
2022-11-26T20:33:55.104Z,95.39
2022-11-26T20:36:23.525Z,95.89
2022-11-26T20:38:55.661Z,96.82
2022-11-26T20:41:23.814Z,96.82
2022-11-26T20:43:55.082Z,97.82
2022-11-26T20:46:25.566Z,98.14
2022-11-26T20:48:53.144Z,97.99
2022-11-26T20:51:22.265Z,97.84
2022-11-26T20:53:50.853Z,97.68
2022-11-26T20:56:22.064Z,98.03
2022-11-26T20:58:50.103Z,98.69
2022-11-26T21:01:18.137Z,97.75
2022-11-26T21:03:45.762Z,97.38
2022-11-26T21:06:14.291Z,96.80
2022-11-26T21:08:41.747Z,97.17
2022-11-26T21:11:09.196Z,97.19
2022-11-26T21:13:38.064Z,98.34
2022-11-26T21:16:06.897Z,97.04
2022-11-26T21:18:34.400Z,100.00
2022-11-26T21:21:08.501Z,98.42
2022-11-26T21:23:39.095Z,98.20
2022-11-26T21:26:07.969Z,98.50
2022-11-26T21:28:35.353Z,96.37
2022-11-26T21:31:11.963Z,96.15
2022-11-26T21:33:39.468Z,96.02
2022-11-26T21:36:08.149Z,95.78
2022-11-26T21:38:35.665Z,96.82
2022-11-26T21:41:12.694Z,96.24
2022-11-26T21:43:40.788Z,95.85
2022-11-26T21:46:13.378Z,95.98
2022-11-26T21:48:40.286Z,97.61
2022-11-26T21:51:09.041Z,97.34
2022-11-26T21:53:39.063Z,96.27
2022-11-26T21:56:10.388Z,97.05
2022-11-26T21:58:37.620Z,96.00
2022-11-26T22:01:28.711Z,96.26
2022-11-26T22:03:59.436Z,95.72
2022-11-26T22:06:27.212Z,95.63
2022-11-26T22:08:54.262Z,94.77
2022-11-26T22:11:26.980Z,94.79
2022-11-26T22:13:54.441Z,95.06
2022-11-26T22:16:24.501Z,95.92
2022-11-26T22:18:52.166Z,95.84
2022-11-26T22:21:45.896Z,95.46
2022-11-26T22:24:17.579Z,95.73
2022-11-26T22:26:45.155Z,95.28
2022-11-26T22:29:17.057Z,94.81
2022-11-26T22:33:35.135Z,94.49
2022-11-26T22:36:02.106Z,94.68
2022-11-26T22:38:28.973Z,93.17
2022-11-26T22:41:00.315Z,92.43
2022-11-26T22:43:27.543Z,93.79
2022-11-26T22:45:55.403Z,94.46
2022-11-26T22:48:22.933Z,94.74
2022-11-26T22:50:51.655Z,94.49
2022-11-26T22:53:18.666Z,93.71
2022-11-26T22:55:59.853Z,93.19
2022-11-26T22:58:28.073Z,94.24
2022-11-26T23:00:57.779Z,94.07
2022-11-26T23:03:26.767Z,93.38
2022-11-26T23:05:54.484Z,93.88
2022-11-26T23:08:22.434Z,93.76
2022-11-26T23:10:49.563Z,93.84
2022-11-26T23:13:17.169Z,93.46
2022-11-26T23:15:46.697Z,93.67
2022-11-26T23:18:15.559Z,92.60
2022-11-26T23:20:44.559Z,92.26
2022-11-26T23:23:11.705Z,94.50
2022-11-26T23:25:40.636Z,94.68
2022-11-26T23:28:09.202Z,93.40
2022-11-26T23:30:36.350Z,93.92
2022-11-26T23:33:03.399Z,92.89
2022-11-26T23:35:30.239Z,93.50
2022-11-26T23:37:57.174Z,93.17
2022-11-26T23:40:24.249Z,93.65
2022-11-26T23:42:51.138Z,93.11
2022-11-26T23:45:18.013Z,93.13
2022-11-26T23:47:46.388Z,92.84
2022-11-26T23:50:13.996Z,93.76
2022-11-26T23:52:40.952Z,93.48
2022-11-26T23:55:08.438Z,93.61
2022-11-26T23:57:35.764Z,94.31
